createdAt,value
2022-10-02T00:01:16.814Z,0.70
2022-10-02T00:11:42.199Z,0.50
2022-10-02T00:22:18.619Z,0.30
2022-10-02T00:32:50.468Z,0.50
2022-10-02T00:43:20.679Z,0.80
2022-10-02T00:53:45.678Z,0.87
2022-10-02T01:03:50.123Z,0.70
2022-10-02T01:13:51.746Z,0.80
2022-10-02T01:24:10.023Z,0.90
2022-10-02T01:34:12.120Z,1.08
2022-10-02T01:44:15.804Z,1.27
2022-10-02T01:54:51.160Z,1.03
2022-10-02T02:04:59.883Z,0.60
2022-10-02T02:15:11.441Z,0.77
2022-10-02T02:25:18.151Z,0.63
2022-10-02T02:35:26.925Z,0.83
2022-10-02T02:45:44.379Z,0.70
2022-10-02T02:55:54.527Z,0.60
2022-10-02T03:06:30.907Z,0.83
2022-10-02T03:17:03.096Z,0.90
2022-10-02T03:27:04.531Z,0.60
2022-10-02T03:37:07.495Z,0.87
2022-10-02T03:47:08.966Z,1.10
2022-10-02T03:57:18.120Z,0.50
2022-10-02T04:07:26.408Z,0.70
2022-10-02T04:17:38.634Z,1.00
2022-10-02T04:27:44.253Z,0.90
2022-10-02T04:37:56.413Z,0.53
2022-10-02T04:48:13.023Z,0.90
2022-10-02T04:58:23.719Z,0.90
2022-10-02T05:09:02.974Z,0.97
2022-10-02T05:19:23.146Z,1.00
2022-10-02T05:29:33.352Z,0.67
2022-10-02T05:39:41.270Z,0.90
2022-10-02T05:49:53.591Z,0.50
2022-10-02T06:00:22.504Z,0.60
2022-10-02T06:10:30.221Z,0.60
2022-10-02T06:20:40.602Z,0.57
2022-10-02T06:30:48.500Z,0.57
2022-10-02T06:41:09.940Z,0.77
2022-10-02T06:51:24.552Z,1.20
2022-10-02T07:01:29.100Z,1.00
2022-10-02T07:12:07.692Z,1.10
2022-10-02T07:22:47.814Z,1.03
2022-10-02T07:33:01.684Z,1.00
2022-10-02T07:43:40.387Z,1.60
2022-10-02T07:53:51.794Z,1.50
2022-10-02T08:04:04.470Z,1.40
2022-10-02T08:14:18.778Z,1.63
2022-10-02T08:24:30.619Z,1.80
2022-10-02T08:34:33.657Z,1.50
2022-10-02T08:44:53.556Z,2.97
2022-10-02T08:55:10.113Z,2.60
2022-10-02T09:05:35.764Z,3.07
2022-10-02T09:15:40.139Z,1.40
2022-10-02T09:26:15.731Z,1.67
2022-10-02T09:36:22.959Z,2.60
2022-10-02T09:46:33.616Z,3.10
2022-10-02T09:56:55.439Z,3.03
2022-10-02T10:07:18.956Z,2.78
2022-10-02T10:17:58.141Z,2.73
2022-10-02T10:28:36.763Z,3.40
2022-10-02T10:38:47.678Z,3.37
2022-10-02T10:49:24.312Z,1.97
2022-10-02T10:59:45.443Z,2.55
2022-10-02T11:09:59.539Z,1.30
2022-10-02T11:20:07.205Z,1.10
2022-10-02T11:30:18.541Z,1.17
2022-10-02T11:40:32.096Z,0.93
2022-10-02T11:50:45.726Z,1.45
2022-10-02T12:01:18.199Z,0.93
2022-10-02T12:11:47.004Z,1.47
2022-10-02T12:22:03.644Z,1.30
2022-10-02T12:32:37.397Z,1.57
2022-10-02T12:43:02.599Z,1.40
2022-10-02T12:53:37.908Z,1.63
2022-10-02T13:03:42.090Z,2.00
2022-10-02T13:14:19.914Z,2.07
2022-10-02T13:24:33.446Z,1.50
2022-10-02T13:34:38.378Z,1.02
2022-10-02T13:45:02.496Z,1.20
2022-10-02T13:55:24.484Z,1.40
2022-10-02T14:05:57.917Z,0.60
2022-10-02T14:16:15.951Z,1.50
2022-10-02T14:26:46.192Z,1.40
2022-10-02T14:37:21.729Z,1.63
2022-10-02T14:47:44.736Z,1.00
2022-10-02T14:58:04.535Z,1.00
2022-10-02T15:08:15.906Z,1.27
2022-10-02T15:18:38.463Z,0.93
2022-10-02T15:29:08.117Z,1.10
2022-10-02T15:39:45.623Z,1.30
2022-10-02T15:50:19.155Z,0.80
2022-10-02T16:00:23.180Z,1.57
2022-10-02T16:10:44.705Z,1.33
2022-10-02T16:21:01.113Z,1.40
2022-10-02T16:31:19.435Z,1.30
2022-10-02T16:41:37.224Z,1.27
2022-10-02T16:51:41.674Z,1.43
2022-10-02T17:02:13.105Z,1.55
2022-10-02T17:12:28.399Z,2.17
2022-10-02T17:22:51.875Z,2.87
2022-10-02T17:33:13.719Z,2.90
2022-10-02T17:43:27.676Z,3.00
2022-10-02T17:53:54.999Z,3.78
2022-10-02T18:04:05.438Z,2.57
2022-10-02T18:14:20.536Z,2.73
2022-10-02T18:24:22.010Z,3.23
2022-10-02T18:34:55.416Z,3.90
2022-10-02T18:45:42.955Z,3.53
2022-10-02T18:56:10.551Z,4.20
2022-10-02T19:06:19.909Z,3.10
2022-10-02T19:16:25.677Z,4.27
2022-10-02T19:26:33.544Z,3.67
2022-10-02T19:36:39.590Z,3.90
2022-10-02T19:46:47.184Z,3.73
2022-10-02T19:56:53.941Z,3.30
2022-10-02T20:07:00.016Z,3.87
2022-10-02T20:17:01.733Z,3.20
2022-10-02T20:27:13.080Z,2.35
2022-10-02T20:37:21.537Z,3.57
2022-10-02T20:48:06.066Z,2.60
2022-10-02T20:58:07.482Z,3.23
2022-10-02T21:08:46.379Z,2.93
2022-10-02T21:18:56.546Z,2.55
2022-10-02T21:29:20.148Z,1.80
2022-10-02T21:39:33.617Z,1.50
2022-10-02T21:50:10.532Z,1.70
2022-10-02T22:00:17.351Z,1.37
2022-10-02T22:10:40.139Z,1.40
2022-10-02T22:21:25.588Z,1.27
2022-10-02T22:31:44.531Z,1.80
2022-10-02T22:42:25.683Z,2.07
2022-10-02T22:52:35.568Z,1.50
2022-10-02T23:02:57.357Z,1.80
2022-10-02T23:13:15.405Z,2.00
2022-10-02T23:23:22.171Z,1.60
2022-10-02T23:33:58.207Z,1.50
2022-10-02T23:44:11.555Z,2.17
2022-10-02T23:54:31.320Z,2.05
